sensor_id;sensor_type;location;lat;lon;timestamp;P1;durP1;ratioP1;P2;durP2;ratioP2
56860;SDS011;42744;51.094;3.490;2023-10-31T00:00:51;19.33;;;13.47;;
56860;SDS011;42744;51.094;3.490;2023-10-31T00:03:17;19.93;;;14.67;;
56860;SDS011;42744;51.094;3.490;2023-10-31T00:05:43;18.93;;;13.10;;
56860;SDS011;42744;51.094;3.490;2023-10-31T00:08:09;17.57;;;13.93;;
56860;SDS011;42744;51.094;3.490;2023-10-31T00:10:35;18.67;;;13.13;;
56860;SDS011;42744;51.094;3.490;2023-10-31T00:13:01;21.40;;;13.97;;
56860;SDS011;42744;51.094;3.490;2023-10-31T00:15:27;19.27;;;14.53;;
56860;SDS011;42744;51.094;3.490;2023-10-31T00:17:56;21.40;;;14.10;;
56860;SDS011;42744;51.094;3.490;2023-10-31T00:20:21;19.63;;;13.80;;
56860;SDS011;42744;51.094;3.490;2023-10-31T00:22:47;19.80;;;14.03;;
56860;SDS011;42744;51.094;3.490;2023-10-31T00:25:13;19.93;;;14.57;;
56860;SDS011;42744;51.094;3.490;2023-10-31T00:27:39;19.17;;;14.43;;
56860;SDS011;42744;51.094;3.490;2023-10-31T00:30:05;19.33;;;14.13;;
56860;SDS011;42744;51.094;3.490;2023-10-31T00:32:32;20.30;;;13.93;;
56860;SDS011;42744;51.094;3.490;2023-10-31T00:34:58;18.63;;;13.10;;
56860;SDS011;42744;51.094;3.490;2023-10-31T00:37:24;17.40;;;11.57;;
56860;SDS011;42744;51.094;3.490;2023-10-31T00:39:50;19.07;;;12.43;;
56860;SDS011;42744;51.094;3.490;2023-10-31T00:42:16;16.60;;;12.60;;
56860;SDS011;42744;51.094;3.490;2023-10-31T00:44:42;15.73;;;11.53;;
56860;SDS011;42744;51.094;3.490;2023-10-31T00:47:08;15.30;;;11.90;;
56860;SDS011;42744;51.094;3.490;2023-10-31T00:49:35;14.27;;;10.80;;
56860;SDS011;42744;51.094;3.490;2023-10-31T00:52:01;14.90;;;10.93;;
56860;SDS011;42744;51.094;3.490;2023-10-31T00:54:29;14.13;;;9.93;;
56860;SDS011;42744;51.094;3.490;2023-10-31T00:56:55;14.67;;;10.40;;
56860;SDS011;42744;51.094;3.490;2023-10-31T00:59:21;17.73;;;11.20;;
56860;SDS011;42744;51.094;3.490;2023-10-31T01:01:48;13.23;;;9.73;;
56860;SDS011;42744;51.094;3.490;2023-10-31T01:04:14;18.23;;;10.43;;
56860;SDS011;42744;51.094;3.490;2023-10-31T01:06:40;14.83;;;10.47;;
56860;SDS011;42744;51.094;3.490;2023-10-31T01:09:07;16.53;;;10.70;;
56860;SDS011;42744;51.094;3.490;2023-10-31T01:11:34;15.20;;;9.30;;
56860;SDS011;42744;51.094;3.490;2023-10-31T01:14:01;13.17;;;8.57;;
56860;SDS011;42744;51.094;3.490;2023-10-31T01:16:27;14.90;;;8.77;;
56860;SDS011;42744;51.094;3.490;2023-10-31T01:18:53;12.73;;;9.13;;
56860;SDS011;42744;51.094;3.490;2023-10-31T01:21:19;15.97;;;9.03;;
56860;SDS011;42744;51.094;3.490;2023-10-31T01:23:45;11.50;;;8.33;;
56860;SDS011;42744;51.094;3.490;2023-10-31T01:26:11;11.97;;;7.57;;
56860;SDS011;42744;51.094;3.490;2023-10-31T01:28:37;13.77;;;7.70;;
56860;SDS011;42744;51.094;3.490;2023-10-31T01:31:03;14.07;;;8.50;;
56860;SDS011;42744;51.094;3.490;2023-10-31T01:33:29;12.73;;;8.63;;
56860;SDS011;42744;51.094;3.490;2023-10-31T01:35:55;12.53;;;8.53;;
56860;SDS011;42744;51.094;3.490;2023-10-31T01:38:21;12.10;;;7.93;;
56860;SDS011;42744;51.094;3.490;2023-10-31T01:40:50;11.27;;;8.20;;
56860;SDS011;42744;51.094;3.490;2023-10-31T01:46:15;9.13;;;7.17;;
56860;SDS011;42744;51.094;3.490;2023-10-31T01:48:41;14.13;;;7.80;;
56860;SDS011;42744;51.094;3.490;2023-10-31T01:51:07;10.87;;;7.30;;
56860;SDS011;42744;51.094;3.490;2023-10-31T01:53:36;8.80;;;7.17;;
56860;SDS011;42744;51.094;3.490;2023-10-31T01:56:02;11.27;;;7.17;;
56860;SDS011;42744;51.094;3.490;2023-10-31T01:58:33;11.17;;;6.60;;
56860;SDS011;42744;51.094;3.490;2023-10-31T02:01:01;9.30;;;7.13;;
56860;SDS011;42744;51.094;3.490;2023-10-31T02:03:28;9.40;;;6.50;;
56860;SDS011;42744;51.094;3.490;2023-10-31T02:05:55;7.77;;;6.30;;
56860;SDS011;42744;51.094;3.490;2023-10-31T02:08:22;8.70;;;6.30;;
56860;SDS011;42744;51.094;3.490;2023-10-31T02:10:49;9.53;;;5.87;;
56860;SDS011;42744;51.094;3.490;2023-10-31T02:13:15;7.83;;;5.20;;
56860;SDS011;42744;51.094;3.490;2023-10-31T02:15:43;8.30;;;6.00;;
56860;SDS011;42744;51.094;3.490;2023-10-31T02:18:14;9.33;;;5.40;;
56860;SDS011;42744;51.094;3.490;2023-10-31T02:20:47;8.73;;;4.87;;
56860;SDS011;42744;51.094;3.490;2023-10-31T02:23:20;9.33;;;5.27;;
56860;SDS011;42744;51.094;3.490;2023-10-31T02:25:51;6.63;;;5.00;;
56860;SDS011;42744;51.094;3.490;2023-10-31T02:28:17;6.90;;;4.67;;
56860;SDS011;42744;51.094;3.490;2023-10-31T02:30:43;7.13;;;4.10;;
56860;SDS011;42744;51.094;3.490;2023-10-31T02:33:09;4.93;;;3.87;;
56860;SDS011;42744;51.094;3.490;2023-10-31T02:35:35;7.20;;;3.97;;
56860;SDS011;42744;51.094;3.490;2023-10-31T02:38:02;5.80;;;3.87;;
56860;SDS011;42744;51.094;3.490;2023-10-31T02:40:27;5.07;;;3.50;;
56860;SDS011;42744;51.094;3.490;2023-10-31T02:42:54;3.87;;;3.10;;
56860;SDS011;42744;51.094;3.490;2023-10-31T02:45:20;5.73;;;3.27;;
56860;SDS011;42744;51.094;3.490;2023-10-31T02:47:46;4.83;;;3.03;;
56860;SDS011;42744;51.094;3.490;2023-10-31T02:50:12;4.73;;;2.50;;
56860;SDS011;42744;51.094;3.490;2023-10-31T02:52:38;3.83;;;2.33;;
56860;SDS011;42744;51.094;3.490;2023-10-31T02:55:04;3.53;;;2.33;;
56860;SDS011;42744;51.094;3.490;2023-10-31T02:57:30;4.97;;;2.33;;
56860;SDS011;42744;51.094;3.490;2023-10-31T02:59:56;5.10;;;2.33;;
56860;SDS011;42744;51.094;3.490;2023-10-31T03:02:22;2.60;;;1.90;;
56860;SDS011;42744;51.094;3.490;2023-10-31T03:04:48;7.00;;;2.50;;
56860;SDS011;42744;51.094;3.490;2023-10-31T03:07:23;4.23;;;2.57;;
56860;SDS011;42744;51.094;3.490;2023-10-31T03:09:49;3.23;;;2.30;;
56860;SDS011;42744;51.094;3.490;2023-10-31T03:12:15;5.27;;;2.93;;
56860;SDS011;42744;51.094;3.490;2023-10-31T03:14:42;6.70;;;2.17;;
56860;SDS011;42744;51.094;3.490;2023-10-31T03:17:08;4.87;;;2.87;;
56860;SDS011;42744;51.094;3.490;2023-10-31T03:19:34;2.60;;;2.30;;
56860;SDS011;42744;51.094;3.490;2023-10-31T03:22:00;3.47;;;2.57;;
56860;SDS011;42744;51.094;3.490;2023-10-31T03:24:27;7.60;;;2.53;;
56860;SDS011;42744;51.094;3.490;2023-10-31T03:26:52;4.37;;;2.57;;
56860;SDS011;42744;51.094;3.490;2023-10-31T03:29:18;3.70;;;2.73;;
56860;SDS011;42744;51.094;3.490;2023-10-31T03:31:44;3.73;;;2.37;;
56860;SDS011;42744;51.094;3.490;2023-10-31T03:34:10;4.93;;;2.60;;
56860;SDS011;42744;51.094;3.490;2023-10-31T03:36:36;4.70;;;2.63;;
56860;SDS011;42744;51.094;3.490;2023-10-31T03:39:02;4.40;;;2.47;;
56860;SDS011;42744;51.094;3.490;2023-10-31T03:41:28;4.33;;;2.70;;
56860;SDS011;42744;51.094;3.490;2023-10-31T03:43:54;5.07;;;2.83;;
56860;SDS011;42744;51.094;3.490;2023-10-31T03:46:20;3.10;;;2.80;;
56860;SDS011;42744;51.094;3.490;2023-10-31T03:48:46;6.00;;;3.10;;
56860;SDS011;42744;51.094;3.490;2023-10-31T03:51:12;5.00;;;3.60;;
56860;SDS011;42744;51.094;3.490;2023-10-31T03:53:38;4.33;;;3.27;;
56860;SDS011;42744;51.094;3.490;2023-10-31T03:56:04;8.50;;;4.17;;
56860;SDS011;42744;51.094;3.490;2023-10-31T03:58:30;4.83;;;3.50;;
56860;SDS011;42744;51.094;3.490;2023-10-31T04:00:57;4.90;;;3.27;;
56860;SDS011;42744;51.094;3.490;2023-10-31T04:03:23;6.53;;;3.70;;
56860;SDS011;42744;51.094;3.490;2023-10-31T04:05:49;8.77;;;4.07;;
56860;SDS011;42744;51.094;3.490;2023-10-31T04:08:15;4.60;;;3.93;;
56860;SDS011;42744;51.094;3.490;2023-10-31T04:10:41;5.87;;;3.73;;
56860;SDS011;42744;51.094;3.490;2023-10-31T04:13:07;5.10;;;4.17;;
56860;SDS011;42744;51.094;3.490;2023-10-31T04:15:33;6.40;;;4.40;;
56860;SDS011;42744;51.094;3.490;2023-10-31T04:18:00;5.83;;;4.57;;
56860;SDS011;42744;51.094;3.490;2023-10-31T04:20:26;5.60;;;4.20;;
56860;SDS011;42744;51.094;3.490;2023-10-31T04:22:52;7.40;;;4.70;;
56860;SDS011;42744;51.094;3.490;2023-10-31T04:25:18;7.77;;;5.00;;
56860;SDS011;42744;51.094;3.490;2023-10-31T04:27:44;5.97;;;5.37;;
56860;SDS011;42744;51.094;3.490;2023-10-31T04:30:11;8.23;;;5.10;;
56860;SDS011;42744;51.094;3.490;2023-10-31T04:32:37;6.23;;;5.63;;
56860;SDS011;42744;51.094;3.490;2023-10-31T04:35:03;7.67;;;5.67;;
56860;SDS011;42744;51.094;3.490;2023-10-31T04:37:29;7.63;;;5.93;;
56860;SDS011;42744;51.094;3.490;2023-10-31T04:39:56;9.37;;;5.50;;
56860;SDS011;42744;51.094;3.490;2023-10-31T04:42:22;6.17;;;5.40;;
56860;SDS011;42744;51.094;3.490;2023-10-31T04:44:48;6.17;;;5.40;;
56860;SDS011;42744;51.094;3.490;2023-10-31T04:47:14;6.10;;;5.40;;
56860;SDS011;42744;51.094;3.490;2023-10-31T04:49:40;8.40;;;6.00;;
56860;SDS011;42744;51.094;3.490;2023-10-31T04:52:06;8.87;;;6.13;;
56860;SDS011;42744;51.094;3.490;2023-10-31T04:54:32;7.93;;;6.10;;
56860;SDS011;42744;51.094;3.490;2023-10-31T04:56:59;11.43;;;6.57;;
56860;SDS011;42744;51.094;3.490;2023-10-31T04:59:25;10.70;;;7.10;;
56860;SDS011;42744;51.094;3.490;2023-10-31T05:01:51;12.70;;;7.47;;
56860;SDS011;42744;51.094;3.490;2023-10-31T05:04:17;10.93;;;6.70;;
56860;SDS011;42744;51.094;3.490;2023-10-31T05:06:43;11.87;;;7.03;;
56860;SDS011;42744;51.094;3.490;2023-10-31T05:09:10;8.23;;;7.03;;
56860;SDS011;42744;51.094;3.490;2023-10-31T05:11:36;7.50;;;6.57;;
56860;SDS011;42744;51.094;3.490;2023-10-31T05:14:02;8.87;;;7.77;;
56860;SDS011;42744;51.094;3.490;2023-10-31T05:16:28;9.87;;;7.97;;
56860;SDS011;42744;51.094;3.490;2023-10-31T05:18:54;9.00;;;7.10;;
56860;SDS011;42744;51.094;3.490;2023-10-31T05:21:20;13.63;;;8.17;;
56860;SDS011;42744;51.094;3.490;2023-10-31T05:23:46;12.20;;;8.00;;
56860;SDS011;42744;51.094;3.490;2023-10-31T05:26:12;13.97;;;8.70;;
56860;SDS011;42744;51.094;3.490;2023-10-31T05:28:38;14.90;;;9.47;;
56860;SDS011;42744;51.094;3.490;2023-10-31T05:31:04;13.83;;;9.00;;
56860;SDS011;42744;51.094;3.490;2023-10-31T05:33:30;14.20;;;8.93;;
56860;SDS011;42744;51.094;3.490;2023-10-31T05:35:56;18.97;;;9.50;;
56860;SDS011;42744;51.094;3.490;2023-10-31T05:38:22;17.47;;;9.07;;
56860;SDS011;42744;51.094;3.490;2023-10-31T05:40:48;16.27;;;10.13;;
56860;SDS011;42744;51.094;3.490;2023-10-31T05:43:14;15.73;;;9.93;;
56860;SDS011;42744;51.094;3.490;2023-10-31T05:45:40;24.40;;;10.57;;
56860;SDS011;42744;51.094;3.490;2023-10-31T05:48:06;35.50;;;13.57;;
56860;SDS011;42744;51.094;3.490;2023-10-31T05:50:32;32.63;;;10.30;;
56860;SDS011;42744;51.094;3.490;2023-10-31T05:52:58;26.53;;;12.37;;
56860;SDS011;42744;51.094;3.490;2023-10-31T05:55:24;25.80;;;10.73;;
56860;SDS011;42744;51.094;3.490;2023-10-31T05:57:50;30.43;;;12.77;;
56860;SDS011;42744;51.094;3.490;2023-10-31T06:00:16;39.57;;;14.07;;
56860;SDS011;42744;51.094;3.490;2023-10-31T06:02:43;27.80;;;13.50;;
56860;SDS011;42744;51.094;3.490;2023-10-31T06:05:09;21.10;;;13.10;;
56860;SDS011;42744;51.094;3.490;2023-10-31T06:07:35;26.67;;;13.23;;
56860;SDS011;42744;51.094;3.490;2023-10-31T06:10:02;19.67;;;13.13;;
56860;SDS011;42744;51.094;3.490;2023-10-31T06:12:28;19.30;;;12.80;;
56860;SDS011;42744;51.094;3.490;2023-10-31T06:14:54;18.90;;;12.20;;
56860;SDS011;42744;51.094;3.490;2023-10-31T06:17:20;22.03;;;13.33;;
56860;SDS011;42744;51.094;3.490;2023-10-31T06:19:47;20.97;;;13.57;;
56860;SDS011;42744;51.094;3.490;2023-10-31T06:22:13;22.10;;;14.23;;
56860;SDS011;42744;51.094;3.490;2023-10-31T06:24:39;24.97;;;14.97;;
56860;SDS011;42744;51.094;3.490;2023-10-31T06:27:06;28.97;;;16.33;;
56860;SDS011;42744;51.094;3.490;2023-10-31T06:29:32;23.00;;;15.23;;
56860;SDS011;42744;51.094;3.490;2023-10-31T06:31:58;24.03;;;15.13;;
56860;SDS011;42744;51.094;3.490;2023-10-31T06:34:24;24.67;;;15.00;;
56860;SDS011;42744;51.094;3.490;2023-10-31T06:36:50;26.87;;;15.10;;
56860;SDS011;42744;51.094;3.490;2023-10-31T06:39:17;28.43;;;15.60;;
56860;SDS011;42744;51.094;3.490;2023-10-31T06:41:43;26.83;;;14.57;;
56860;SDS011;42744;51.094;3.490;2023-10-31T06:44:09;28.93;;;14.83;;
56860;SDS011;42744;51.094;3.490;2023-10-31T06:46:35;28.20;;;15.20;;
56860;SDS011;42744;51.094;3.490;2023-10-31T06:49:01;23.83;;;14.50;;
56860;SDS011;42744;51.094;3.490;2023-10-31T06:51:27;27.27;;;14.90;;
56860;SDS011;42744;51.094;3.490;2023-10-31T06:53:53;34.00;;;15.47;;
56860;SDS011;42744;51.094;3.490;2023-10-31T06:56:19;24.37;;;14.40;;
56860;SDS011;42744;51.094;3.490;2023-10-31T06:58:45;30.43;;;16.13;;
56860;SDS011;42744;51.094;3.490;2023-10-31T07:01:11;26.93;;;15.47;;
56860;SDS011;42744;51.094;3.490;2023-10-31T07:03:39;30.17;;;16.23;;
56860;SDS011;42744;51.094;3.490;2023-10-31T07:06:05;26.40;;;15.37;;
56860;SDS011;42744;51.094;3.490;2023-10-31T07:08:31;28.47;;;17.33;;
56860;SDS011;42744;51.094;3.490;2023-10-31T07:10:57;31.87;;;19.10;;
56860;SDS011;42744;51.094;3.490;2023-10-31T07:13:23;29.80;;;17.77;;
56860;SDS011;42744;51.094;3.490;2023-10-31T07:15:49;25.40;;;17.33;;
56860;SDS011;42744;51.094;3.490;2023-10-31T07:18:15;31.00;;;17.53;;
56860;SDS011;42744;51.094;3.490;2023-10-31T07:20:41;30.53;;;18.30;;
56860;SDS011;42744;51.094;3.490;2023-10-31T07:23:07;29.53;;;19.20;;
56860;SDS011;42744;51.094;3.490;2023-10-31T07:25:33;27.93;;;18.97;;
56860;SDS011;42744;51.094;3.490;2023-10-31T07:27:59;26.03;;;17.00;;
56860;SDS011;42744;51.094;3.490;2023-10-31T07:30:25;29.10;;;18.43;;
56860;SDS011;42744;51.094;3.490;2023-10-31T07:32:52;30.10;;;17.57;;
56860;SDS011;42744;51.094;3.490;2023-10-31T07:35:18;31.00;;;18.83;;
56860;SDS011;42744;51.094;3.490;2023-10-31T07:37:45;27.33;;;18.20;;
56860;SDS011;42744;51.094;3.490;2023-10-31T07:40:11;28.33;;;18.20;;
56860;SDS011;42744;51.094;3.490;2023-10-31T07:42:37;28.83;;;19.80;;
56860;SDS011;42744;51.094;3.490;2023-10-31T07:45:03;27.90;;;19.67;;
56860;SDS011;42744;51.094;3.490;2023-10-31T07:47:30;30.17;;;19.30;;
56860;SDS011;42744;51.094;3.490;2023-10-31T07:49:56;31.03;;;20.07;;
56860;SDS011;42744;51.094;3.490;2023-10-31T07:52:22;31.53;;;19.63;;
56860;SDS011;42744;51.094;3.490;2023-10-31T07:54:48;31.80;;;19.73;;
56860;SDS011;42744;51.094;3.490;2023-10-31T07:57:14;31.70;;;19.60;;
56860;SDS011;42744;51.094;3.490;2023-10-31T07:59:41;28.73;;;19.83;;
56860;SDS011;42744;51.094;3.490;2023-10-31T08:02:07;26.37;;;18.97;;
56860;SDS011;42744;51.094;3.490;2023-10-31T08:04:33;28.33;;;19.27;;
56860;SDS011;42744;51.094;3.490;2023-10-31T08:06:59;27.23;;;18.07;;
56860;SDS011;42744;51.094;3.490;2023-10-31T08:09:25;30.60;;;18.80;;
56860;SDS011;42744;51.094;3.490;2023-10-31T08:11:51;28.63;;;18.00;;
56860;SDS011;42744;51.094;3.490;2023-10-31T08:14:17;24.93;;;17.63;;
56860;SDS011;42744;51.094;3.490;2023-10-31T08:16:43;23.20;;;16.20;;
56860;SDS011;42744;51.094;3.490;2023-10-31T08:19:10;21.80;;;16.43;;
56860;SDS011;42744;51.094;3.490;2023-10-31T08:21:37;22.10;;;15.97;;
56860;SDS011;42744;51.094;3.490;2023-10-31T08:24:03;20.13;;;15.83;;
56860;SDS011;42744;51.094;3.490;2023-10-31T08:26:31;21.13;;;16.27;;
56860;SDS011;42744;51.094;3.490;2023-10-31T08:28:57;22.40;;;16.40;;
56860;SDS011;42744;51.094;3.490;2023-10-31T08:31:24;23.53;;;16.50;;
56860;SDS011;42744;51.094;3.490;2023-10-31T08:33:50;23.83;;;16.90;;
56860;SDS011;42744;51.094;3.490;2023-10-31T08:36:16;23.70;;;17.40;;
56860;SDS011;42744;51.094;3.490;2023-10-31T08:38:42;24.37;;;17.73;;
56860;SDS011;42744;51.094;3.490;2023-10-31T08:41:08;19.93;;;16.73;;
56860;SDS011;42744;51.094;3.490;2023-10-31T08:43:34;24.27;;;16.20;;
56860;SDS011;42744;51.094;3.490;2023-10-31T08:46:00;26.13;;;17.17;;
56860;SDS011;42744;51.094;3.490;2023-10-31T08:48:26;25.03;;;17.30;;
56860;SDS011;42744;51.094;3.490;2023-10-31T08:50:52;25.43;;;17.40;;
56860;SDS011;42744;51.094;3.490;2023-10-31T08:53:18;21.10;;;15.83;;
56860;SDS011;42744;51.094;3.490;2023-10-31T08:55:44;22.43;;;16.53;;
56860;SDS011;42744;51.094;3.490;2023-10-31T08:58:11;22.63;;;16.93;;
56860;SDS011;42744;51.094;3.490;2023-10-31T09:00:38;22.47;;;15.47;;
56860;SDS011;42744;51.094;3.490;2023-10-31T09:03:06;21.57;;;16.27;;
56860;SDS011;42744;51.094;3.490;2023-10-31T09:05:33;22.37;;;16.13;;
56860;SDS011;42744;51.094;3.490;2023-10-31T09:07:59;22.50;;;15.80;;
56860;SDS011;42744;51.094;3.490;2023-10-31T09:10:25;20.80;;;15.70;;
56860;SDS011;42744;51.094;3.490;2023-10-31T09:12:51;18.90;;;14.77;;
56860;SDS011;42744;51.094;3.490;2023-10-31T09:15:17;20.77;;;15.63;;
56860;SDS011;42744;51.094;3.490;2023-10-31T09:17:47;20.97;;;15.20;;
56860;SDS011;42744;51.094;3.490;2023-10-31T09:20:13;21.73;;;15.03;;
56860;SDS011;42744;51.094;3.490;2023-10-31T09:22:39;22.17;;;16.27;;
56860;SDS011;42744;51.094;3.490;2023-10-31T09:25:05;18.00;;;14.47;;
56860;SDS011;42744;51.094;3.490;2023-10-31T09:27:31;22.50;;;15.30;;
56860;SDS011;42744;51.094;3.490;2023-10-31T09:30:04;22.13;;;15.43;;
56860;SDS011;42744;51.094;3.490;2023-10-31T09:32:31;18.77;;;15.13;;
56860;SDS011;42744;51.094;3.490;2023-10-31T09:34:57;19.63;;;14.53;;
56860;SDS011;42744;51.094;3.490;2023-10-31T09:37:23;19.07;;;14.83;;
56860;SDS011;42744;51.094;3.490;2023-10-31T09:39:49;18.97;;;14.90;;
56860;SDS011;42744;51.094;3.490;2023-10-31T09:42:15;17.63;;;14.67;;
56860;SDS011;42744;51.094;3.490;2023-10-31T09:44:49;18.27;;;14.53;;
56860;SDS011;42744;51.094;3.490;2023-10-31T09:47:21;17.57;;;14.70;;
56860;SDS011;42744;51.094;3.490;2023-10-31T09:49:48;20.10;;;15.33;;
56860;SDS011;42744;51.094;3.490;2023-10-31T09:52:14;22.10;;;15.80;;
56860;SDS011;42744;51.094;3.490;2023-10-31T09:54:40;19.57;;;15.47;;
56860;SDS011;42744;51.094;3.490;2023-10-31T09:57:08;19.93;;;15.17;;
56860;SDS011;42744;51.094;3.490;2023-10-31T09:59:34;21.30;;;15.27;;
56860;SDS011;42744;51.094;3.490;2023-10-31T10:02:00;21.23;;;15.30;;
56860;SDS011;42744;51.094;3.490;2023-10-31T10:04:26;23.17;;;16.57;;
56860;SDS011;42744;51.094;3.490;2023-10-31T10:07:00;22.10;;;16.57;;
56860;SDS011;42744;51.094;3.490;2023-10-31T10:09:28;20.47;;;15.20;;
56860;SDS011;42744;51.094;3.490;2023-10-31T10:11:55;23.03;;;16.13;;
56860;SDS011;42744;51.094;3.490;2023-10-31T10:14:24;20.30;;;15.60;;
56860;SDS011;42744;51.094;3.490;2023-10-31T10:16:52;21.17;;;16.03;;
56860;SDS011;42744;51.094;3.490;2023-10-31T10:19:19;21.73;;;15.27;;
56860;SDS011;42744;51.094;3.490;2023-10-31T10:21:47;22.53;;;15.30;;
56860;SDS011;42744;51.094;3.490;2023-10-31T10:24:18;19.67;;;13.33;;
56860;SDS011;42744;51.094;3.490;2023-10-31T10:26:44;20.10;;;13.03;;
56860;SDS011;42744;51.094;3.490;2023-10-31T10:29:11;18.10;;;12.60;;
56860;SDS011;42744;51.094;3.490;2023-10-31T10:31:37;19.33;;;11.83;;
56860;SDS011;42744;51.094;3.490;2023-10-31T10:34:03;20.10;;;12.63;;
56860;SDS011;42744;51.094;3.490;2023-10-31T10:36:29;17.77;;;12.70;;
56860;SDS011;42744;51.094;3.490;2023-10-31T10:38:58;14.80;;;12.10;;
56860;SDS011;42744;51.094;3.490;2023-10-31T10:41:25;17.43;;;12.30;;
56860;SDS011;42744;51.094;3.490;2023-10-31T10:43:56;14.70;;;12.60;;
56860;SDS011;42744;51.094;3.490;2023-10-31T10:46:34;19.83;;;13.17;;
56860;SDS011;42744;51.094;3.490;2023-10-31T10:49:05;19.03;;;13.90;;
56860;SDS011;42744;51.094;3.490;2023-10-31T10:51:35;17.17;;;13.17;;
56860;SDS011;42744;51.094;3.490;2023-10-31T10:54:24;20.33;;;12.43;;
56860;SDS011;42744;51.094;3.490;2023-10-31T10:57:03;19.90;;;12.83;;
56860;SDS011;42744;51.094;3.490;2023-10-31T10:59:42;17.50;;;11.70;;
56860;SDS011;42744;51.094;3.490;2023-10-31T11:02:14;18.73;;;12.43;;
56860;SDS011;42744;51.094;3.490;2023-10-31T11:04:40;16.47;;;11.50;;
56860;SDS011;42744;51.094;3.490;2023-10-31T11:07:08;20.70;;;12.87;;
56860;SDS011;42744;51.094;3.490;2023-10-31T11:09:35;17.73;;;12.80;;
56860;SDS011;42744;51.094;3.490;2023-10-31T11:12:02;17.07;;;12.50;;
56860;SDS011;42744;51.094;3.490;2023-10-31T11:14:28;19.50;;;12.10;;
56860;SDS011;42744;51.094;3.490;2023-10-31T11:16:57;16.03;;;12.33;;
56860;SDS011;42744;51.094;3.490;2023-10-31T11:19:28;20.87;;;12.77;;
56860;SDS011;42744;51.094;3.490;2023-10-31T11:21:57;17.07;;;11.30;;
56860;SDS011;42744;51.094;3.490;2023-10-31T11:24:31;18.90;;;11.23;;
56860;SDS011;42744;51.094;3.490;2023-10-31T11:27:03;19.57;;;12.27;;
56860;SDS011;42744;51.094;3.490;2023-10-31T11:29:32;18.07;;;11.47;;
56860;SDS011;42744;51.094;3.490;2023-10-31T11:31:58;18.10;;;10.90;;
56860;SDS011;42744;51.094;3.490;2023-10-31T11:34:29;17.27;;;10.67;;
56860;SDS011;42744;51.094;3.490;2023-10-31T11:40:11;23.70;;;11.17;;
56860;SDS011;42744;51.094;3.490;2023-10-31T11:42:43;12.97;;;10.80;;
56860;SDS011;42744;51.094;3.490;2023-10-31T11:45:12;15.33;;;10.60;;
56860;SDS011;42744;51.094;3.490;2023-10-31T11:47:48;15.73;;;11.30;;
56860;SDS011;42744;51.094;3.490;2023-10-31T11:50:15;18.00;;;10.87;;
56860;SDS011;42744;51.094;3.490;2023-10-31T11:52:41;12.93;;;9.97;;
56860;SDS011;42744;51.094;3.490;2023-10-31T11:55:10;15.33;;;10.70;;
56860;SDS011;42744;51.094;3.490;2023-10-31T11:57:38;12.03;;;9.33;;
56860;SDS011;42744;51.094;3.490;2023-10-31T12:00:05;13.17;;;9.00;;
56860;SDS011;42744;51.094;3.490;2023-10-31T12:02:38;10.27;;;8.40;;
56860;SDS011;42744;51.094;3.490;2023-10-31T12:05:11;11.67;;;7.90;;
56860;SDS011;42744;51.094;3.490;2023-10-31T12:07:42;11.03;;;8.77;;
56860;SDS011;42744;51.094;3.490;2023-10-31T12:10:11;11.17;;;8.20;;
56860;SDS011;42744;51.094;3.490;2023-10-31T12:12:38;12.53;;;7.67;;
56860;SDS011;42744;51.094;3.490;2023-10-31T12:15:07;9.63;;;7.83;;
56860;SDS011;42744;51.094;3.490;2023-10-31T12:17:34;11.00;;;8.50;;
56860;SDS011;42744;51.094;3.490;2023-10-31T12:20:06;11.87;;;7.93;;
56860;SDS011;42744;51.094;3.490;2023-10-31T12:22:34;9.33;;;7.77;;
56860;SDS011;42744;51.094;3.490;2023-10-31T12:25:04;8.73;;;7.60;;
56860;SDS011;42744;51.094;3.490;2023-10-31T12:30:10;10.53;;;7.43;;
56860;SDS011;42744;51.094;3.490;2023-10-31T12:32:41;10.03;;;7.80;;
56860;SDS011;42744;51.094;3.490;2023-10-31T12:35:19;10.10;;;7.90;;
56860;SDS011;42744;51.094;3.490;2023-10-31T12:37:47;8.00;;;6.57;;
56860;SDS011;42744;51.094;3.490;2023-10-31T12:40:16;10.40;;;7.27;;
56860;SDS011;42744;51.094;3.490;2023-10-31T12:42:44;9.53;;;7.13;;
56860;SDS011;42744;51.094;3.490;2023-10-31T12:45:11;10.50;;;7.20;;
56860;SDS011;42744;51.094;3.490;2023-10-31T12:47:37;8.00;;;7.20;;
56860;SDS011;42744;51.094;3.490;2023-10-31T12:50:13;7.13;;;6.43;;
56860;SDS011;42744;51.094;3.490;2023-10-31T12:52:49;8.93;;;6.47;;
56860;SDS011;42744;51.094;3.490;2023-10-31T12:55:22;10.57;;;6.90;;
56860;SDS011;42744;51.094;3.490;2023-10-31T12:57:50;8.80;;;7.00;;
56860;SDS011;42744;51.094;3.490;2023-10-31T13:00:17;7.60;;;6.70;;
56860;SDS011;42744;51.094;3.490;2023-10-31T13:02:50;8.93;;;6.67;;
56860;SDS011;42744;51.094;3.490;2023-10-31T13:05:17;7.30;;;6.27;;
56860;SDS011;42744;51.094;3.490;2023-10-31T13:07:47;8.77;;;6.07;;
56860;SDS011;42744;51.094;3.490;2023-10-31T13:10:15;6.80;;;5.30;;
56860;SDS011;42744;51.094;3.490;2023-10-31T13:12:48;6.47;;;4.53;;
56860;SDS011;42744;51.094;3.490;2023-10-31T13:15:18;5.83;;;4.03;;
56860;SDS011;42744;51.094;3.490;2023-10-31T13:17:47;6.73;;;4.10;;
56860;SDS011;42744;51.094;3.490;2023-10-31T13:20:15;4.67;;;3.70;;
56860;SDS011;42744;51.094;3.490;2023-10-31T13:22:43;4.93;;;4.00;;
56860;SDS011;42744;51.094;3.490;2023-10-31T13:25:09;5.70;;;3.90;;
56860;SDS011;42744;51.094;3.490;2023-10-31T13:27:37;6.63;;;4.00;;
56860;SDS011;42744;51.094;3.490;2023-10-31T13:30:06;4.47;;;4.00;;
56860;SDS011;42744;51.094;3.490;2023-10-31T13:32:33;4.40;;;3.23;;
56860;SDS011;42744;51.094;3.490;2023-10-31T13:35:00;4.93;;;3.60;;
56860;SDS011;42744;51.094;3.490;2023-10-31T13:37:26;4.03;;;3.63;;
56860;SDS011;42744;51.094;3.490;2023-10-31T13:39:52;5.57;;;3.53;;
56860;SDS011;42744;51.094;3.490;2023-10-31T13:42:18;4.43;;;3.67;;
56860;SDS011;42744;51.094;3.490;2023-10-31T13:44:44;5.83;;;3.80;;
56860;SDS011;42744;51.094;3.490;2023-10-31T13:47:10;7.03;;;3.80;;
56860;SDS011;42744;51.094;3.490;2023-10-31T13:49:36;4.07;;;3.60;;
56860;SDS011;42744;51.094;3.490;2023-10-31T13:52:03;5.20;;;4.10;;
56860;SDS011;42744;51.094;3.490;2023-10-31T13:54:34;5.87;;;3.87;;
56860;SDS011;42744;51.094;3.490;2023-10-31T13:57:00;7.50;;;3.93;;
56860;SDS011;42744;51.094;3.490;2023-10-31T13:59:26;7.10;;;4.03;;
56860;SDS011;42744;51.094;3.490;2023-10-31T14:01:52;5.87;;;3.73;;
56860;SDS011;42744;51.094;3.490;2023-10-31T14:04:19;5.93;;;4.00;;
56860;SDS011;42744;51.094;3.490;2023-10-31T14:06:45;6.17;;;4.00;;
56860;SDS011;42744;51.094;3.490;2023-10-31T14:09:11;5.67;;;4.13;;
56860;SDS011;42744;51.094;3.490;2023-10-31T14:11:38;10.37;;;4.23;;
56860;SDS011;42744;51.094;3.490;2023-10-31T14:14:05;5.43;;;3.97;;
56860;SDS011;42744;51.094;3.490;2023-10-31T14:16:36;6.90;;;3.77;;
56860;SDS011;42744;51.094;3.490;2023-10-31T14:19:04;6.57;;;4.03;;
56860;SDS011;42744;51.094;3.490;2023-10-31T14:21:32;4.40;;;3.37;;
56860;SDS011;42744;51.094;3.490;2023-10-31T14:24:01;4.50;;;3.40;;
56860;SDS011;42744;51.094;3.490;2023-10-31T14:26:29;5.77;;;3.20;;
56860;SDS011;42744;51.094;3.490;2023-10-31T14:28:55;5.20;;;2.93;;
56860;SDS011;42744;51.094;3.490;2023-10-31T14:31:21;4.53;;;3.27;;
56860;SDS011;42744;51.094;3.490;2023-10-31T14:33:48;6.93;;;3.43;;
56860;SDS011;42744;51.094;3.490;2023-10-31T14:36:14;6.63;;;3.40;;
56860;SDS011;42744;51.094;3.490;2023-10-31T14:38:40;4.17;;;3.00;;
56860;SDS011;42744;51.094;3.490;2023-10-31T14:41:07;5.47;;;3.43;;